Time;durP1;ratioP1;P1;durP2;ratioP2;P2;SDS_P1;SDS_P2;PMS_P1;PMS_P2;Temp;Humidity;BMP_temperature;BMP_pressure;BME280_temperature;BME280_humidity;BME280_pressure;Samples;Min_cycle;Max_cycle;Signal;HPM_P1;HPM_P2
2023/10/09 00:02:09;;;;;;;5.55;4.32;;;13.80;99.90;;;;;;4953868;28;89908;-32
2023/10/09 00:04:36;;;;;;;9.52;4.82;;;13.80;99.90;;;;;;4940525;28;89214;-32
2023/10/09 00:07:03;;;;;;;8.30;6.00;;;13.80;99.90;;;;;;4941443;28;90027;-34
2023/10/09 00:09:32;;;;;;;9.98;6.05;;;13.80;99.90;;;;;;4942521;28;89127;-32
2023/10/09 00:12:00;;;;;;;9.20;5.57;;;13.70;99.90;;;;;;4954741;28;90255;-31
2023/10/09 00:14:30;;;;;;;10.30;5.90;;;13.80;99.90;;;;;;4948619;28;90606;-34
2023/10/09 00:17:03;;;;;;;14.48;6.75;;;13.80;99.90;;;;;;4944544;28;92281;-31
2023/10/09 00:19:31;;;;;;;6.50;5.57;;;13.80;99.90;;;;;;4942443;28;89134;-33
2023/10/09 00:21:58;;;;;;;;;;;13.80;99.90;;;;;;4942307;28;90105;-33
2023/10/09 00:24:24;;;;;;;10.63;6.63;;;13.80;99.90;;;;;;4943010;28;89715;-32
2023/10/09 00:27:11;;;;;;;11.57;7.72;;;13.80;99.90;;;;;;4940497;28;89434;-32
2023/10/09 00:29:44;;;;;;;12.50;7.57;;;13.80;99.90;;;;;;4942377;28;88932;-32
2023/10/09 00:34:42;;;;;;;7.75;6.78;;;13.80;99.90;;;;;;4940583;28;89755;-34
2023/10/09 00:37:17;;;;;;;14.68;7.63;;;13.80;99.90;;;;;;4941155;28;89071;-32
2023/10/09 00:39:43;;;;;;;19.23;8.98;;;13.80;99.90;;;;;;4941235;28;90109;-34
2023/10/09 00:42:14;;;;;;;10.38;8.73;;;13.80;99.90;;;;;;4953167;28;90339;-35
2023/10/09 00:44:41;;;;;;;13.98;7.93;;;13.80;99.90;;;;;;4940517;28;89763;-32
2023/10/09 00:47:22;;;;;;;11.75;8.63;;;13.80;99.90;;;;;;4949150;28;89432;-31
2023/10/09 00:49:54;;;;;;;17.65;10.32;;;13.80;99.90;;;;;;4947241;28;89363;-33
2023/10/09 00:52:31;;;;;;;14.57;10.10;;;13.70;99.90;;;;;;4948660;28;90135;-31
2023/10/09 00:55:03;;;;;;;11.50;8.95;;;13.80;99.90;;;;;;4939461;28;90065;-32
2023/10/09 00:57:31;;;;;;;15.85;10.52;;;13.70;99.90;;;;;;4941194;28;90120;-34
2023/10/09 00:59:59;;;;;;;17.38;8.68;;;13.70;99.90;;;;;;4947001;28;88716;-33
2023/10/09 01:02:35;;;;;;;12.45;9.85;;;13.70;99.90;;;;;;4945317;28;89503;-31
2023/10/09 01:05:20;;;;;;;13.45;10.88;;;13.70;99.90;;;;;;4940186;28;90832;-32
2023/10/09 01:07:48;;;;;;;11.98;9.52;;;13.70;99.90;;;;;;4943702;28;91501;-34
2023/10/09 01:10:16;;;;;;;17.17;11.65;;;13.70;99.90;;;;;;4948334;28;88704;-32
2023/10/09 01:12:44;;;;;;;13.85;10.85;;;13.70;99.90;;;;;;4945020;28;89800;-33
2023/10/09 01:15:36;;;;;;;13.63;10.27;;;13.70;99.90;;;;;;4944861;28;89932;-33
2023/10/09 01:17:58;;;;;;;16.08;10.68;;;13.60;99.90;;;;;;4949024;28;89668;-33
2023/10/09 01:20:30;;;;;;;19.58;12.35;;;13.60;99.90;;;;;;4942701;28;87641;-32
2023/10/09 01:22:55;;;;;;;16.02;10.70;;;13.60;99.90;;;;;;4940735;28;90270;-31
2023/10/09 01:25:21;;;;;;;13.63;10.82;;;13.60;99.90;;;;;;4944190;28;89716;-33
2023/10/09 01:27:47;;;;;;;17.52;11.70;;;13.60;99.90;;;;;;4947235;28;89793;-33
2023/10/09 01:30:13;;;;;;;16.83;12.52;;;13.60;99.90;;;;;;4940121;28;90831;-32
2023/10/09 01:32:40;;;;;;;19.27;12.10;;;13.60;99.90;;;;;;4939571;28;90266;-33
2023/10/09 01:35:20;;;;;;;21.30;12.43;;;13.60;99.90;;;;;;4939792;28;89417;-33
2023/10/09 01:37:49;;;;;;;19.02;13.10;;;13.60;99.90;;;;;;4943862;28;89407;-34
2023/10/09 01:40:36;;;;;;;28.33;13.48;;;13.60;99.90;;;;;;4947566;28;89066;-32
2023/10/09 01:43:03;;;;;;;18.20;13.63;;;13.60;99.90;;;;;;4927931;28;90392;-32
2023/10/09 01:45:51;;;;;;;17.88;12.98;;;13.60;99.90;;;;;;4939804;28;90058;-32
2023/10/09 01:48:23;;;;;;;19.95;14.25;;;13.60;99.90;;;;;;4952690;28;89235;-32
2023/10/09 01:50:49;;;;;;;20.45;13.77;;;13.60;99.90;;;;;;4939599;28;90301;-32
2023/10/09 01:53:22;;;;;;;19.13;14.15;;;13.60;99.90;;;;;;4938818;28;90742;-33
2023/10/09 01:55:47;;;;;;;23.05;14.40;;;13.60;99.90;;;;;;4938548;28;90635;-30
2023/10/09 02:00:49;;;;;;;23.88;14.73;;;13.50;99.90;;;;;;4952146;28;88804;-32
2023/10/09 02:03:15;;;;;;;16.40;13.37;;;13.50;99.90;;;;;;4939644;28;90727;-33
2023/10/09 02:05:44;;;;;;;21.52;14.30;;;13.50;99.90;;;;;;4937270;28;89381;-33
2023/10/09 02:08:13;;;;;;;20.77;15.27;;;13.50;99.90;;;;;;4939525;28;89652;-32
2023/10/09 02:10:39;;;;;;;20.85;14.05;;;13.50;99.90;;;;;;4950580;28;89227;-32
2023/10/09 02:13:06;;;;;;;18.70;14.48;;;13.50;99.90;;;;;;4939757;28;90097;-32
2023/10/09 02:26:17;;;;;;;20.00;14.88;;;13.50;99.90;;;;;;4938552;28;89634;-31
2023/10/09 02:28:43;;;;;;;21.67;13.82;;;13.50;99.90;;;;;;4938260;28;88562;-32
2023/10/09 02:31:11;;;;;;;23.77;15.85;;;13.60;99.90;;;;;;4939664;28;88144;-32
2023/10/09 02:33:39;;;;;;;26.90;16.93;;;13.50;99.90;;;;;;4938665;28;89662;-32
2023/10/09 02:36:06;;;;;;;30.38;15.25;;;13.60;99.90;;;;;;4938272;28;89395;-34
2023/10/09 02:38:40;;;;;;;22.25;16.70;;;13.60;99.90;;;;;;4939148;28;88740;-31
2023/10/09 02:43:44;;;;;;;24.45;17.00;;;13.60;99.90;;;;;;4938525;28;90682;-32
2023/10/09 02:46:17;;;;;;;27.23;18.58;;;13.60;99.90;;;;;;4953984;28;89426;-33
2023/10/09 02:49:26;;;;;;;26.20;16.33;;;13.60;99.90;;;;;;4957393;28;90842;-34
2023/10/09 02:51:33;;;;;;;33.92;18.52;;;13.60;99.90;;;;;;4924894;28;88714;-34
2023/10/09 02:54:18;;;;;;;26.02;17.80;;;13.60;99.90;;;;;;4949271;28;90667;-32
2023/10/09 02:57:06;;;;;;;27.42;18.42;;;13.60;99.90;;;;;;4926189;28;90100;-31
2023/10/09 02:59:38;;;;;;;29.15;18.88;;;13.60;99.90;;;;;;4938422;28;89119;-33
2023/10/09 03:02:04;;;;;;;29.42;18.73;;;13.60;99.90;;;;;;4938882;28;89504;-35
2023/10/09 03:04:29;;;;;;;34.63;21.17;;;13.60;99.90;;;;;;4938478;28;90376;-31
2023/10/09 03:06:57;;;;;;;31.55;19.38;;;13.60;99.90;;;;;;4938282;28;89543;-30
2023/10/09 03:09:27;;;;;;;31.70;19.92;;;13.60;99.90;;;;;;4938483;28;90130;-33
2023/10/09 03:11:55;;;;;;;31.50;20.02;;;13.60;99.90;;;;;;4938245;28;90244;-33
2023/10/09 03:14:24;;;;;;;34.25;19.80;;;13.60;99.90;;;;;;4938650;28;91699;-33
2023/10/09 03:16:50;;;;;;;31.25;20.48;;;13.60;99.90;;;;;;4938529;28;89668;-30
2023/10/09 03:19:16;;;;;;;33.42;21.13;;;13.60;99.90;;;;;;4950667;28;89647;-31
2023/10/09 03:21:42;;;;;;;35.00;21.98;;;13.60;99.90;;;;;;4938181;28;88816;-33
2023/10/09 03:24:08;;;;;;;31.60;21.40;;;13.60;99.90;;;;;;4952207;28;90358;-33
2023/10/09 03:26:34;;;;;;;31.02;23.50;;;13.60;99.90;;;;;;4941447;28;89681;-34
2023/10/09 03:29:06;;;;;;;33.22;22.27;;;13.60;99.90;;;;;;4954058;28;89809;-34
2023/10/09 03:31:36;;;;;;;33.35;23.17;;;13.60;99.90;;;;;;4954445;28;89858;-34
2023/10/09 03:34:02;;;;;;;38.55;25.38;;;13.60;99.90;;;;;;4941290;28;90501;-31
2023/10/09 03:36:30;;;;;;;39.00;25.95;;;13.60;99.90;;;;;;4941283;28;90587;-32
2023/10/09 03:38:57;;;;;;;35.03;24.42;;;13.60;99.90;;;;;;4954338;28;90390;-32
2023/10/09 03:41:26;;;;;;;46.10;25.63;;;13.60;99.90;;;;;;4941550;28;89408;-32
2023/10/09 03:43:54;;;;;;;41.63;26.77;;;13.60;99.90;;;;;;4941043;28;90382;-33
2023/10/09 03:46:32;;;;;;;41.15;27.00;;;13.70;99.90;;;;;;4942724;28;89842;-33
2023/10/09 03:49:00;;;;;;;41.20;27.83;;;13.70;99.90;;;;;;4960713;28;88506;-32
2023/10/09 03:51:27;;;;;;;48.60;27.77;;;13.70;99.90;;;;;;4956405;28;87624;-33
2023/10/09 03:53:53;;;;;;;43.80;29.35;;;13.80;99.90;;;;;;4952635;28;89871;-32
2023/10/09 03:56:21;;;;;;;41.28;29.33;;;13.80;99.90;;;;;;4942745;28;88000;-31
2023/10/09 03:58:49;;;;;;;49.53;30.30;;;13.80;99.90;;;;;;4940648;28;90126;-33
2023/10/09 04:01:25;;;;;;;47.63;28.17;;;13.80;99.90;;;;;;4953896;28;90794;-32
2023/10/09 04:04:04;;;;;;;49.80;30.40;;;13.90;99.90;;;;;;4940505;28;88928;-33
2023/10/09 04:06:32;;;;;;;50.88;29.40;;;13.90;99.90;;;;;;4941106;28;89956;-31
2023/10/09 04:08:58;;;;;;;46.42;29.67;;;13.90;99.90;;;;;;4940460;28;90941;-32
2023/10/09 04:11:25;;;;;;;50.67;31.02;;;13.90;99.90;;;;;;4941137;28;90064;-31
2023/10/09 04:13:55;;;;;;;46.22;28.65;;;14.00;99.90;;;;;;4953675;28;90395;-33
2023/10/09 04:18:56;;;;;;;48.60;30.80;;;14.00;99.90;;;;;;4951826;28;90187;-32
2023/10/09 04:21:35;;;;;;;47.72;29.45;;;14.00;99.90;;;;;;4941717;28;88218;-32
2023/10/09 04:26:44;;;;;;;41.65;27.92;;;14.10;99.90;;;;;;4952471;28;90962;-34
2023/10/09 04:29:18;;;;;;;44.80;31.10;;;14.10;99.90;;;;;;4941134;28;91310;-31
2023/10/09 04:31:51;;;;;;;50.95;31.35;;;14.10;99.90;;;;;;4953308;28;88532;-33
2023/10/09 04:37:00;;;;;;;55.25;32.28;;;14.20;99.90;;;;;;4940012;28;89561;-33
2023/10/09 04:47:38;;;;;;;51.88;32.05;;;14.30;99.90;;;;;;4953079;28;90458;-33
2023/10/09 04:50:36;;;;;;;46.42;28.98;;;14.30;99.90;;;;;;4940429;28;89464;-31
2023/10/09 04:53:22;;;;;;;50.85;30.80;;;14.30;99.90;;;;;;4940553;28;90039;-33
2023/10/09 04:55:57;;;;;;;54.65;34.55;;;14.30;99.90;;;;;;4939546;28;91357;-33
2023/10/09 04:58:25;;;;;;;59.17;34.08;;;14.40;99.90;;;;;;4940444;28;91656;-33
2023/10/09 05:03:42;;;;;;;49.65;31.77;;;14.40;99.90;;;;;;4940445;28;88311;-33
2023/10/09 05:06:21;;;;;;;50.03;33.78;;;14.40;99.90;;;;;;4939924;28;89360;-33
2023/10/09 05:08:48;;;;;;;50.88;33.20;;;14.40;99.90;;;;;;4950954;28;89554;-33
2023/10/09 05:14:11;;;;;;;55.75;37.50;;;14.50;99.90;;;;;;4941684;28;88829;-32
2023/10/09 05:16:51;;;;;;;57.05;35.03;;;14.50;99.90;;;;;;4939708;28;89806;-33
2023/10/09 05:19:30;;;;;;;51.50;33.28;;;14.60;99.90;;;;;;4940099;28;90314;-32
2023/10/09 05:21:58;;;;;;;;;;;14.60;99.90;;;;;;4940678;28;89329;-33
2023/10/09 05:24:26;;;;;;;51.85;33.67;;;14.60;99.90;;;;;;4941835;28;87966;-34
2023/10/09 05:26:52;;;;;;;50.83;34.03;;;14.70;99.90;;;;;;4938845;28;90057;-32
2023/10/09 05:37:26;;;;;;;55.28;34.65;;;14.90;99.90;;;;;;4938961;28;90432;-32
2023/10/09 05:47:53;;;;;;;59.65;34.33;;;15.00;99.90;;;;;;4970908;28;90300;-36
2023/10/09 06:03:26;;;;;;;44.88;30.05;;;15.20;99.90;;;;;;4961975;28;89685;-32
2023/10/09 06:14:04;;;;;;;45.78;29.60;;;15.30;99.90;;;;;;4960765;28;90394;-34
2023/10/09 06:25:08;;;;;;;39.97;26.52;;;15.30;99.90;;;;;;4960383;28;89501;-31
2023/10/09 06:27:12;;;;;;;40.75;25.55;;;15.30;99.90;;;;;;4969085;28;87941;-31
2023/10/09 06:29:51;;;;;;;43.50;24.73;;;15.30;99.90;;;;;;4959537;28;90408;-33
2023/10/09 06:34:51;;;;;;;40.35;24.08;;;15.40;99.90;;;;;;4966185;28;90125;-35
2023/10/09 06:47:55;;;;;;;33.42;24.38;;;15.40;99.90;;;;;;4978226;28;90607;-30
2023/10/09 06:53:05;;;;;;;36.58;21.27;;;15.50;99.90;;;;;;4958936;28;89715;-32
2023/10/09 06:55:48;;;;;;;30.15;22.00;;;15.50;99.90;;;;;;4977350;28;89640;-33
2023/10/09 06:58:22;;;;;;;31.98;20.77;;;15.50;99.90;;;;;;4958800;28;90318;-31
2023/10/09 07:01:19;;;;;;;32.78;20.63;;;15.50;99.90;;;;;;4975305;28;90393;-31
2023/10/09 07:03:59;;;;;;;29.67;21.23;;;15.60;99.90;;;;;;4975193;28;90086;-32
2023/10/09 07:07:09;;;;;;;24.80;16.88;;;15.60;99.90;;;;;;4958762;28;90771;-34
2023/10/09 07:17:00;;;;;;;24.90;16.77;;;15.70;99.90;;;;;;4964013;28;90339;-31
2023/10/09 07:19:57;;;;;;;24.33;16.55;;;15.70;99.90;;;;;;4968818;28;89461;-34
2023/10/09 07:24:57;;;;;;;23.35;17.13;;;15.70;99.90;;;;;;4957919;28;89197;-31
2023/10/09 07:38:14;;;;;;;17.15;13.32;;;15.80;99.90;;;;;;4965381;28;89670;-34
2023/10/09 07:43:35;;;;;;;23.63;13.23;;;15.80;99.90;;;;;;4975415;28;90384;-32
2023/10/09 07:48:48;;;;;;;21.05;14.82;;;15.90;99.90;;;;;;4970475;28;89660;-31
2023/10/09 07:51:16;;;;;;;17.20;12.88;;;15.90;99.90;;;;;;4972270;28;90006;-32
2023/10/09 07:53:44;;;;;;;20.97;12.73;;;15.90;99.90;;;;;;4976795;28;89929;-35
2023/10/09 07:56:20;;;;;;;21.45;13.82;;;15.90;99.90;;;;;;4971502;28;90574;-31
2023/10/09 07:58:46;;;;;;;28.25;13.35;;;15.90;99.90;;;;;;4950205;28;90037;-33
2023/10/09 08:01:22;;;;;;;20.55;14.25;;;15.90;99.90;;;;;;4972049;28;90051;-33
2023/10/09 08:03:57;;;;;;;22.08;14.13;;;15.90;99.90;;;;;;4958363;28;90656;-31
2023/10/09 08:06:44;;;;;;;20.25;13.60;;;15.90;99.90;;;;;;4976323;28;90101;-32
2023/10/09 08:16:51;;;;;;;24.45;13.20;;;16.00;99.90;;;;;;4974034;28;89916;-32
2023/10/09 08:19:32;;;;;;;17.17;13.57;;;16.00;99.90;;;;;;4961770;28;88217;-32
2023/10/09 08:22:37;;;;;;;21.80;12.32;;;16.00;99.90;;;;;;4961699;28;90553;-33
2023/10/09 08:25:02;;;;;;;15.50;12.05;;;16.00;99.90;;;;;;4961840;28;92579;-33
2023/10/09 08:33:02;;;;;;;19.83;12.63;;;16.10;99.90;;;;;;4979450;28;89309;-33
2023/10/09 08:35:35;;;;;;;21.80;11.80;;;16.10;99.90;;;;;;4960599;28;90054;-33
2023/10/09 08:38:08;;;;;;;20.25;12.82;;;16.10;99.90;;;;;;4968731;28;89876;-32
2023/10/09 08:40:38;;;;;;;18.27;12.65;;;16.10;99.90;;;;;;4978374;28;89388;-32
2023/10/09 08:43:24;;;;;;;21.58;11.88;;;16.10;99.90;;;;;;4978208;28;91215;-30
2023/10/09 08:45:54;;;;;;;16.27;10.85;;;16.20;99.90;;;;;;4978328;28;91518;-34
2023/10/09 08:48:21;;;;;;;15.00;10.40;;;16.20;99.90;;;;;;4973802;28;90531;-32
2023/10/09 08:50:54;;;;;;;18.77;12.52;;;16.20;99.90;;;;;;4971304;28;90115;-31
2023/10/09 08:53:20;;;;;;;18.48;11.98;;;16.20;99.90;;;;;;4978927;28;89308;-34
2023/10/09 08:55:47;;;;;;;18.85;10.18;;;16.20;99.90;;;;;;4966214;28;89743;-35
2023/10/09 08:58:26;;;;;;;20.63;12.70;;;16.20;99.90;;;;;;4965853;28;89394;-34
2023/10/09 09:00:52;;;;;;;16.30;10.15;;;16.20;99.90;;;;;;4975243;28;91775;-31
2023/10/09 09:03:22;;;;;;;15.48;10.63;;;16.20;99.90;;;;;;4967501;28;89688;-33
2023/10/09 09:05:57;;;;;;;20.48;10.57;;;16.20;99.90;;;;;;4976949;28;88957;-34
2023/10/09 09:08:30;;;;;;;22.95;13.02;;;16.20;99.90;;;;;;4979430;28;89926;-34
2023/10/09 09:11:11;;;;;;;22.48;12.38;;;16.20;99.90;;;;;;4977783;28;90000;-32
2023/10/09 09:13:41;;;;;;;15.57;9.98;;;16.20;99.90;;;;;;4977170;28;88906;-31
2023/10/09 09:16:17;;;;;;;22.83;12.23;;;16.20;99.90;;;;;;4978720;28;90373;-33
2023/10/09 09:21:45;;;;;;;20.40;12.35;;;16.20;99.90;;;;;;4972828;28;89402;-33
2023/10/09 09:26:44;;;;;;;18.88;10.98;;;16.20;99.90;;;;;;4975961;28;90541;-32
2023/10/09 09:29:11;;;;;;;19.88;11.32;;;16.10;99.90;;;;;;4978711;28;89588;-34
2023/10/09 09:31:41;;;;;;;16.65;11.65;;;16.10;99.90;;;;;;4973628;28;90132;-31
2023/10/09 09:34:13;;;;;;;16.05;10.93;;;16.10;99.90;;;;;;4977361;28;89518;-32
2023/10/09 09:36:57;;;;;;;16.38;11.60;;;16.10;99.90;;;;;;4973786;28;90280;-34
2023/10/09 09:39:28;;;;;;;26.77;13.05;;;16.20;99.90;;;;;;4973171;28;90967;-32
2023/10/09 09:42:07;;;;;;;18.80;11.68;;;16.20;99.90;;;;;;4963674;28;89568;-32
2023/10/09 09:44:43;;;;;;;;;;;16.20;99.90;;;;;;4959414;28;89357;-33
2023/10/09 09:47:12;;;;;;;16.00;11.85;;;16.20;99.90;;;;;;4968607;28;91175;-32
2023/10/09 09:49:42;;;;;;;16.63;12.70;;;16.20;99.90;;;;;;4964482;28;88581;-34
2023/10/09 09:52:12;;;;;;;22.13;11.32;;;16.30;99.90;;;;;;4968784;28;89611;-30
2023/10/09 09:54:39;;;;;;;19.90;12.30;;;16.30;99.90;;;;;;4958032;28;88217;-33
2023/10/09 09:57:10;;;;;;;13.57;11.98;;;16.30;99.90;;;;;;4958848;28;90383;-33
2023/10/09 09:59:55;;;;;;;24.00;13.13;;;16.30;99.90;;;;;;4959157;28;89877;-31
2023/10/09 10:02:40;;;;;;;16.85;12.20;;;16.40;99.90;;;;;;4958428;28;90151;-34
2023/10/09 10:05:12;;;;;;;18.70;12.55;;;16.30;99.90;;;;;;4959310;28;90210;-33
2023/10/09 10:07:43;;;;;;;20.25;13.20;;;16.40;99.90;;;;;;4959249;28;89263;-32
2023/10/09 10:10:37;;;;;;;19.80;12.32;;;16.40;99.90;;;;;;4959244;28;89582;-32
2023/10/09 10:13:04;;;;;;;23.23;14.00;;;16.50;99.90;;;;;;4952259;28;89473;-33
2023/10/09 10:16:11;;;;;;;19.55;12.60;;;16.50;99.90;;;;;;4961865;28;89989;-33
2023/10/09 10:19:00;;;;;;;14.93;11.07;;;16.50;99.90;;;;;;4975329;28;89293;-33
2023/10/09 10:24:09;;;;;;;17.08;10.52;;;16.60;99.90;;;;;;4959414;28;90688;-30
2023/10/09 10:26:36;;;;;;;15.02;10.60;;;16.70;99.90;;;;;;4943211;28;88145;-34
2023/10/09 10:29:23;;;;;;;16.88;10.55;;;16.70;99.90;;;;;;4958330;28;90330;-33
2023/10/09 10:32:20;;;;;;;13.80;11.35;;;16.70;99.90;;;;;;4972104;28;90701;-33
2023/10/09 10:35:09;;;;;;;14.75;11.35;;;16.70;99.90;;;;;;4977766;28;90083;-34
2023/10/09 10:37:43;;;;;;;14.52;10.10;;;16.80;99.90;;;;;;4968456;28;89432;-31
2023/10/09 10:40:37;;;;;;;18.80;11.82;;;16.80;99.90;;;;;;4976953;28;90527;-33
2023/10/09 10:43:09;;;;;;;19.65;11.07;;;16.90;99.90;;;;;;4977876;28;90911;-33
2023/10/09 10:45:43;;;;;;;17.15;11.45;;;16.90;99.90;;;;;;4976250;28;89658;-34
2023/10/09 10:48:22;;;;;;;21.00;11.90;;;16.90;99.90;;;;;;4978242;28;88411;-33
2023/10/09 10:50:57;;;;;;;19.67;11.43;;;16.90;99.90;;;;;;4943265;28;90807;-32
2023/10/09 10:53:27;;;;;;;15.80;10.63;;;16.80;99.90;;;;;;4976452;28;90933;-34
2023/10/09 10:56:17;;;;;;;16.80;13.20;;;16.80;99.90;;;;;;4977312;28;89834;-33
2023/10/09 10:59:36;;;;;;;19.70;12.13;;;16.80;99.90;;;;;;4977366;28;90776;-33
2023/10/09 11:04:37;;;;;;;16.48;10.88;;;16.80;99.90;;;;;;4977052;28;89562;-31
2023/10/09 11:07:38;;;;;;;17.92;12.77;;;16.80;99.90;;;;;;4976207;28;88321;-31
2023/10/09 11:16:14;;;;;;;18.52;11.52;;;16.80;99.90;;;;;;4975724;28;89562;-33
2023/10/09 11:18:45;;;;;;;19.45;10.65;;;16.80;99.90;;;;;;4972357;28;89866;-31
2023/10/09 11:23:53;;;;;;;;;;;16.80;99.90;;;;;;4976757;28;90113;-32
2023/10/09 11:31:41;;;;;;;19.65;11.25;;;16.80;99.90;;;;;;4956660;28;89629;-34
2023/10/09 11:34:31;;;;;;;22.10;11.37;;;16.80;99.90;;;;;;4957817;28;89643;-34
2023/10/09 11:37:02;;;;;;;21.95;12.77;;;16.80;99.90;;;;;;4956546;28;88957;-34
2023/10/09 11:39:35;;;;;;;16.33;11.35;;;16.90;99.90;;;;;;4974931;28;90081;-33
2023/10/09 11:42:05;;;;;;;15.63;10.65;;;16.90;99.90;;;;;;4976629;28;89007;-36
2023/10/09 11:44:35;;;;;;;17.65;11.45;;;16.80;99.90;;;;;;4965675;28;92297;-33
2023/10/09 11:55:00;;;;;;;18.13;11.23;;;16.80;99.90;;;;;;4960972;28;90257;-33
2023/10/09 11:57:35;;;;;;;19.65;12.02;;;16.80;99.90;;;;;;4960914;28;89725;-34
2023/10/09 12:02:49;;;;;;;18.08;12.23;;;16.90;99.90;;;;;;4976969;28;92279;-30
2023/10/09 12:05:16;;;;;;;18.42;13.05;;;17.00;99.90;;;;;;4980318;28;89905;-33
2023/10/09 12:07:46;;;;;;;23.93;12.37;;;17.00;99.90;;;;;;4977251;28;88242;-32
2023/10/09 12:10:13;;;;;;;22.33;13.15;;;17.10;99.90;;;;;;4960509;28;90631;-33
2023/10/09 12:12:40;;;;;;;16.00;11.40;;;17.20;99.90;;;;;;4972808;28;89417;-32
2023/10/09 12:15:06;;;;;;;20.90;13.18;;;17.20;99.90;;;;;;4960250;28;90328;-32
2023/10/09 12:17:32;;;;;;;26.05;13.27;;;17.30;99.90;;;;;;4959847;28;90558;-31
2023/10/09 12:19:58;;;;;;;22.67;11.35;;;17.30;99.90;;;;;;4969125;28;89976;-31
2023/10/09 12:22:27;;;;;;;29.75;12.00;;;17.30;99.90;;;;;;4979049;28;89158;-31
2023/10/09 12:24:52;;;;;;;;;;;17.40;99.90;;;;;;4980632;28;89703;-33
2023/10/09 12:27:20;;;;;;;15.18;10.32;;;17.20;99.90;;;;;;4980531;28;90485;-33
2023/10/09 12:29:46;;;;;;;19.45;9.90;;;17.20;99.90;;;;;;4950678;28;89422;-32
2023/10/09 12:32:11;;;;;;;18.67;10.50;;;17.20;99.90;;;;;;4975578;28;90413;-31
2023/10/09 12:34:38;;;;;;;15.95;9.88;;;17.30;99.90;;;;;;4976737;28;90541;-34
2023/10/09 12:37:04;;;;;;;15.82;9.02;;;17.30;99.90;;;;;;4980210;28;89729;-32
2023/10/09 12:39:33;;;;;;;16.95;8.40;;;17.30;99.90;;;;;;4974737;28;89506;-34
2023/10/09 12:42:06;;;;;;;18.75;10.52;;;17.30;99.90;;;;;;4960333;28;89370;-33
2023/10/09 12:44:42;;;;;;;14.68;8.25;;;17.30;99.90;;;;;;4959725;28;90165;-32
2023/10/09 12:47:11;;;;;;;14.27;9.48;;;17.40;99.90;;;;;;4973409;28;89690;-31
2023/10/09 12:49:40;;;;;;;16.92;8.80;;;17.40;99.90;;;;;;4970093;28;90046;-34
2023/10/09 12:52:15;;;;;;;12.23;8.85;;;17.50;99.90;;;;;;4944158;28;89572;-32
2023/10/09 12:54:47;;;;;;;10.55;8.25;;;17.60;99.90;;;;;;4960394;28;91421;-32
2023/10/09 12:57:16;;;;;;;12.70;8.48;;;17.70;99.90;;;;;;4965122;28;90055;-31
2023/10/09 12:59:45;;;;;;;14.50;8.77;;;17.70;99.90;;;;;;4966360;28;90453;-35
2023/10/09 13:02:13;;;;;;;13.18;7.18;;;17.80;99.90;;;;;;4959921;28;89009;-33
2023/10/09 13:04:42;;;;;;;10.25;8.07;;;17.70;99.90;;;;;;4960294;28;90477;-33
2023/10/09 13:07:08;;;;;;;16.08;7.93;;;17.70;99.90;;;;;;4959993;28;89257;-32
2023/10/09 13:09:42;;;;;;;9.05;5.50;;;17.80;99.90;;;;;;4972931;28;89119;-32
2023/10/09 13:12:09;;;;;;;11.43;6.60;;;17.80;99.90;;;;;;4977957;28;89729;-31
2023/10/09 13:14:35;;;;;;;14.10;7.28;;;17.90;99.90;;;;;;4978688;28;89816;-32
2023/10/09 13:17:08;;;;;;;9.52;6.80;;;17.90;99.90;;;;;;4978412;28;89856;-34
2023/10/09 13:19:34;;;;;;;12.82;5.85;;;17.90;99.90;;;;;;4979907;28;89757;-34
2023/10/09 13:22:03;;;;;;;9.60;6.75;;;18.00;99.90;;;;;;4978222;28;89117;-34
2023/10/09 13:24:29;;;;;;;14.57;6.78;;;18.00;99.90;;;;;;4973131;28;90231;-35
2023/10/09 13:26:58;;;;;;;8.82;5.63;;;18.10;99.90;;;;;;4976977;28;89364;-34
2023/10/09 13:29:24;;;;;;;7.05;5.57;;;18.10;99.90;;;;;;4977363;28;89862;-33
2023/10/09 13:31:52;;;;;;;12.45;5.90;;;18.20;99.90;;;;;;4977152;28;89439;-32
2023/10/09 13:34:18;;;;;;;10.70;5.00;;;18.20;99.90;;;;;;4976018;28;90282;-31
2023/10/09 13:36:52;;;;;;;11.15;5.78;;;18.20;99.90;;;;;;4976938;28;90019;-31
2023/10/09 13:39:24;;;;;;;13.27;5.18;;;18.20;99.90;;;;;;4978799;28;90137;-31
2023/10/09 13:41:59;;;;;;;6.43;4.90;;;18.20;99.90;;;;;;4979703;28;89849;-33
2023/10/09 13:44:32;;;;;;;7.07;4.65;;;18.20;99.90;;;;;;4970729;28;90240;-34
2023/10/09 13:47:01;;;;;;;8.15;4.85;;;18.20;99.90;;;;;;4979034;28;89252;-33
2023/10/09 13:49:30;;;;;;;6.65;5.15;;;18.20;99.90;;;;;;4979097;28;90343;-31
2023/10/09 13:51:56;;;;;;;7.47;5.50;;;18.10;99.90;;;;;;4977644;28;89373;-34
2023/10/09 13:54:47;;;;;;;9.15;5.40;;;18.10;99.90;;;;;;4979482;28;88895;-31
2023/10/09 13:57:10;;;;;;;7.07;5.00;;;18.20;99.90;;;;;;4977482;28;90110;-31
2023/10/09 13:59:36;;;;;;;7.93;4.88;;;18.20;99.90;;;;;;4977501;28;90276;-31
2023/10/09 14:02:09;;;;;;;5.25;4.07;;;18.10;99.90;;;;;;4974457;28;89631;-33
2023/10/09 14:04:34;;;;;;;8.68;5.88;;;18.10;99.90;;;;;;4959251;28;90069;-34
2023/10/09 14:07:01;;;;;;;12.80;4.82;;;18.10;99.90;;;;;;4958617;28;89319;-33
2023/10/09 14:09:30;;;;;;;9.35;5.85;;;18.10;99.90;;;;;;4971793;28;90164;-33
2023/10/09 14:12:10;;;;;;;6.43;4.97;;;18.10;99.90;;;;;;4974450;28;89654;-31
2023/10/09 14:14:49;;;;;;;9.80;6.35;;;18.10;99.90;;;;;;4979133;28;91555;-32
2023/10/09 14:17:19;;;;;;;6.97;4.50;;;18.10;99.90;;;;;;4978635;28;91313;-32
2023/10/09 14:19:48;;;;;;;9.27;5.30;;;18.00;99.90;;;;;;4978020;28;89945;-34
2023/10/09 14:22:15;;;;;;;10.90;4.60;;;18.10;99.90;;;;;;4977802;28;90374;-33
2023/10/09 14:24:45;;;;;;;5.63;4.40;;;18.00;99.90;;;;;;4978017;28;90226;-32
2023/10/09 14:27:17;;;;;;;7.22;5.18;;;18.00;99.90;;;;;;4978358;28;88476;-33
2023/10/09 14:29:46;;;;;;;5.93;3.75;;;18.00;99.90;;;;;;4977986;28;89466;-31
2023/10/09 14:32:15;;;;;;;10.35;5.13;;;17.90;99.90;;;;;;4978078;28;88060;-33
2023/10/09 14:34:46;;;;;;;12.00;4.88;;;17.90;99.90;;;;;;4976580;28;90122;-33
2023/10/09 14:37:12;;;;;;;5.80;4.82;;;17.90;99.90;;;;;;4978366;28;89467;-33
2023/10/09 14:39:41;;;;;;;8.57;5.28;;;17.90;99.90;;;;;;4965557;28;89080;-31
2023/10/09 14:42:10;;;;;;;6.55;4.40;;;17.90;99.90;;;;;;4977529;28;90314;-32
2023/10/09 14:44:40;;;;;;;6.78;4.65;;;17.80;99.90;;;;;;4970099;28;90276;-33
2023/10/09 14:47:07;;;;;;;7.95;5.28;;;17.70;99.90;;;;;;4957221;28;91659;-32
2023/10/09 14:49:37;;;;;;;4.68;4.20;;;17.70;99.90;;;;;;4958355;28;90842;-33
2023/10/09 14:52:04;;;;;;;12.45;5.82;;;17.70;99.90;;;;;;4959633;28;87762;-32
2023/10/09 14:54:29;;;;;;;5.37;3.97;;;17.60;99.90;;;;;;4959389;28;90309;-31
2023/10/09 14:56:56;;;;;;;9.77;4.85;;;17.60;99.90;;;;;;4973086;28;90268;-32
2023/10/09 14:59:22;;;;;;;6.65;4.00;;;17.60;99.90;;;;;;4978033;28;90241;-31
2023/10/09 15:01:53;;;;;;;9.60;4.28;;;17.60;99.90;;;;;;4977182;28;88234;-32
2023/10/09 15:04:19;;;;;;;8.02;4.03;;;17.60;99.90;;;;;;4978231;28;89770;-33
2023/10/09 15:06:49;;;;;;;7.55;4.45;;;17.60;99.90;;;;;;4977142;28;89776;-34
2023/10/09 15:09:29;;;;;;;5.95;4.28;;;17.60;99.90;;;;;;4963301;28;89754;-33
2023/10/09 15:11:55;;;;;;;4.95;4.45;;;17.50;99.90;;;;;;4962961;28;89065;-34
2023/10/09 15:14:21;;;;;;;7.20;4.63;;;17.50;99.90;;;;;;4969069;28;90594;-31
2023/10/09 15:16:47;;;;;;;6.50;3.97;;;17.40;99.90;;;;;;4969222;28;89765;-33
2023/10/09 15:19:14;;;;;;;5.25;4.65;;;17.40;99.90;;;;;;4971477;28;88995;-33
2023/10/09 15:21:46;;;;;;;11.35;4.88;;;17.40;99.90;;;;;;4972821;28;89386;-35
2023/10/09 15:24:15;;;;;;;6.65;4.22;;;17.40;99.90;;;;;;4973338;28;89793;-33
2023/10/09 15:27:06;;;;;;;5.32;4.65;;;17.40;99.90;;;;;;4973668;28;90875;-33
2023/10/09 15:29:33;;;;;;;5.50;4.32;;;17.40;99.90;;;;;;4971628;28;89426;-34
2023/10/09 15:32:04;;;;;;;6.57;4.43;;;17.30;99.90;;;;;;4976740;28;89120;-32
2023/10/09 15:34:36;;;;;;;7.93;4.60;;;17.30;99.90;;;;;;4971574;28;90267;-32
2023/10/09 15:37:03;;;;;;;9.23;4.72;;;17.40;99.90;;;;;;4974796;28;90662;-32
2023/10/09 15:39:31;;;;;;;10.43;3.67;;;17.30;99.90;;;;;;4981265;28;91246;-32
2023/10/09 15:41:57;;;;;;;11.05;4.45;;;17.30;99.90;;;;;;4981285;28;87984;-32
2023/10/09 15:44:24;;;;;;;4.85;3.90;;;17.30;99.90;;;;;;4961594;28;90499;-34
2023/10/09 15:46:53;;;;;;;6.93;3.40;;;17.30;99.90;;;;;;4974017;28;89619;-32
2023/10/09 15:49:19;;;;;;;6.68;4.30;;;17.30;99.90;;;;;;4960561;28;89510;-34
2023/10/09 15:51:47;;;;;;;7.93;3.75;;;17.30;99.90;;;;;;4962370;28;89708;-34
2023/10/09 15:54:16;;;;;;;9.05;4.47;;;17.30;99.90;;;;;;4974520;28;90318;-32